createdAt,value
2022-11-04T00:00:28.615Z,50.10
2022-11-04T00:03:05.248Z,49.20
2022-11-04T00:05:40.507Z,50.00
2022-11-04T00:08:24.255Z,50.90
2022-11-04T00:11:19.264Z,50.90
2022-11-04T00:13:54.254Z,50.90
2022-11-04T00:16:47.646Z,50.90
2022-11-04T00:19:22.915Z,50.60
2022-11-04T00:22:16.277Z,50.80
2022-11-04T00:25:00.294Z,51.40
2022-11-04T00:27:53.808Z,51.90
2022-11-04T00:30:28.779Z,51.90
2022-11-04T00:33:22.103Z,51.70
2022-11-04T00:35:57.864Z,51.10
2022-11-04T00:38:32.763Z,51.40
2022-11-04T00:41:26.401Z,51.60
2022-11-04T00:44:05.017Z,52.30
2022-11-04T00:46:39.904Z,52.30
2022-11-04T00:49:14.833Z,51.60
2022-11-04T00:51:49.769Z,51.90
2022-11-04T00:54:24.685Z,51.50
2022-11-04T00:56:59.548Z,51.00
2022-11-04T00:59:34.491Z,50.50
2022-11-04T01:02:11.039Z,50.40
2022-11-04T01:04:47.707Z,50.50
2022-11-04T01:07:22.718Z,50.40
2022-11-04T01:09:57.656Z,50.20
2022-11-04T01:12:32.759Z,50.60
2022-11-04T01:15:08.477Z,49.90
2022-11-04T01:17:43.342Z,49.20
2022-11-04T01:20:18.580Z,49.50
2022-11-04T01:22:53.476Z,49.70
2022-11-04T01:25:28.445Z,49.80
2022-11-04T01:28:03.321Z,50.00
2022-11-04T01:30:39.041Z,49.60
2022-11-04T01:33:14.007Z,49.80
2022-11-04T01:35:48.866Z,50.20
2022-11-04T01:38:23.754Z,50.00
2022-11-04T01:40:59.494Z,50.30
2022-11-04T01:43:47.756Z,50.50
2022-11-04T01:46:28.750Z,50.30
2022-11-04T01:49:32.356Z,50.20
2022-11-04T01:52:15.855Z,50.00
2022-11-04T01:54:53.855Z,49.80
2022-11-04T01:57:39.179Z,49.90
2022-11-04T02:00:15.635Z,50.10
2022-11-04T02:03:18.151Z,50.40
2022-11-04T02:05:54.033Z,50.90
2022-11-04T02:08:29.804Z,51.60
2022-11-04T02:11:04.772Z,51.60
2022-11-04T02:13:39.649Z,51.80
2022-11-04T02:16:20.945Z,52.10
2022-11-04T02:19:36.668Z,51.20
2022-11-04T02:22:41.740Z,50.10
2022-11-04T02:25:39.808Z,48.30
2022-11-04T02:28:52.103Z,46.20
2022-11-04T02:31:42.982Z,45.30
2022-11-04T02:34:20.941Z,44.60
2022-11-04T02:37:20.959Z,44.60
2022-11-04T02:40:13.930Z,44.60
2022-11-04T02:43:17.608Z,44.50
2022-11-04T02:46:22.216Z,44.60
2022-11-04T02:49:07.715Z,44.10
2022-11-04T02:52:05.970Z,43.90
2022-11-04T02:54:58.994Z,43.60
2022-11-04T02:57:37.769Z,43.40
2022-11-04T03:00:14.868Z,42.60
2022-11-04T03:03:02.657Z,42.40
2022-11-04T03:05:40.980Z,42.10
2022-11-04T03:08:38.254Z,42.50
2022-11-04T03:11:18.584Z,42.50
2022-11-04T03:14:08.584Z,42.30
2022-11-04T03:16:52.156Z,42.30
2022-11-04T03:19:42.363Z,42.20
2022-11-04T03:22:21.725Z,42.40
2022-11-04T03:24:57.781Z,42.50
2022-11-04T03:27:47.663Z,43.00
2022-11-04T03:30:24.353Z,43.40
2022-11-04T03:33:26.488Z,43.30
2022-11-04T03:36:03.073Z,43.50
2022-11-04T03:38:38.825Z,43.70
2022-11-04T03:41:34.435Z,44.10
2022-11-04T03:44:09.490Z,43.80
2022-11-04T03:46:44.425Z,43.70
2022-11-04T03:49:22.460Z,43.90
2022-11-04T03:51:58.408Z,43.90
2022-11-04T03:54:36.061Z,43.60
2022-11-04T03:57:41.891Z,43.70
2022-11-04T04:00:21.553Z,43.90
2022-11-04T04:03:25.631Z,43.80
2022-11-04T04:06:28.798Z,44.00
2022-11-04T04:09:33.832Z,44.30
2022-11-04T04:12:34.939Z,44.50
2022-11-04T04:15:20.100Z,44.70
2022-11-04T04:18:06.870Z,45.10
2022-11-04T04:20:47.290Z,45.30
2022-11-04T04:23:46.699Z,45.40
2022-11-04T04:26:42.377Z,45.70
2022-11-04T04:29:18.659Z,46.10
2022-11-04T04:31:57.856Z,46.30
2022-11-04T04:34:33.677Z,46.30
2022-11-04T04:37:25.550Z,46.60
2022-11-04T04:40:24.895Z,46.60
2022-11-04T04:43:18.784Z,46.90
2022-11-04T04:45:55.663Z,47.10
2022-11-04T04:48:30.545Z,47.40
2022-11-04T04:51:05.716Z,47.70
2022-11-04T04:53:40.677Z,48.00
2022-11-04T04:56:15.616Z,48.10
2022-11-04T04:58:51.167Z,48.00
2022-11-04T05:01:26.263Z,48.20
2022-11-04T05:04:01.332Z,48.20
2022-11-04T05:06:36.365Z,48.20
2022-11-04T05:09:11.279Z,48.20
2022-11-04T05:11:46.282Z,48.20
2022-11-04T05:14:21.258Z,48.20
2022-11-04T05:16:56.344Z,48.20
2022-11-04T05:19:31.335Z,48.40
2022-11-04T05:22:06.271Z,48.50
2022-11-04T05:24:41.198Z,48.60
2022-11-04T05:27:16.184Z,48.90
2022-11-04T05:29:51.067Z,49.00
2022-11-04T05:32:25.945Z,49.30
2022-11-04T05:35:00.959Z,49.70
2022-11-04T05:37:35.933Z,50.10
2022-11-04T05:40:19.429Z,50.20
2022-11-04T05:42:59.081Z,50.40
2022-11-04T05:45:34.001Z,50.70
2022-11-04T05:48:08.876Z,50.90
2022-11-04T05:50:44.073Z,51.10
2022-11-04T05:53:19.014Z,51.30
2022-11-04T05:55:54.258Z,51.50
2022-11-04T05:58:29.094Z,51.70
2022-11-04T06:01:23.457Z,52.00
2022-11-04T06:04:00.009Z,52.10
2022-11-04T06:06:36.741Z,52.50
2022-11-04T06:09:11.932Z,52.60
2022-11-04T06:11:46.969Z,53.20
2022-11-04T06:14:21.883Z,52.90
2022-11-04T06:16:57.095Z,53.10
2022-11-04T06:19:32.062Z,53.30
2022-11-04T06:22:07.003Z,53.60
2022-11-04T06:24:42.661Z,53.80
2022-11-04T06:27:17.968Z,54.10
2022-11-04T06:29:53.580Z,54.40
2022-11-04T06:32:29.450Z,54.70
2022-11-04T06:35:04.693Z,55.00
2022-11-04T06:37:39.696Z,55.20
2022-11-04T06:40:17.674Z,55.40
2022-11-04T06:42:52.553Z,55.50
2022-11-04T06:45:27.493Z,55.50
2022-11-04T06:48:02.429Z,55.50
2022-11-04T06:50:37.328Z,55.50
2022-11-04T06:53:12.191Z,55.40
2022-11-04T06:55:47.034Z,55.30
2022-11-04T06:58:22.210Z,55.30
2022-11-04T07:00:57.647Z,55.50
2022-11-04T07:03:32.607Z,55.60
2022-11-04T07:06:09.631Z,55.70
2022-11-04T07:08:44.729Z,55.70
2022-11-04T07:11:22.222Z,55.50
2022-11-04T07:13:57.419Z,55.40
2022-11-04T07:16:32.373Z,55.20
2022-11-04T07:19:07.433Z,55.00
2022-11-04T07:21:42.344Z,54.90
2022-11-04T07:24:17.404Z,54.80
2022-11-04T07:26:56.131Z,54.60
2022-11-04T07:29:31.081Z,54.30
2022-11-04T07:32:06.291Z,54.10
2022-11-04T07:34:41.172Z,53.90
2022-11-04T07:37:16.134Z,53.80
2022-11-04T07:39:51.052Z,53.70
2022-11-04T07:42:25.981Z,53.60
2022-11-04T07:45:04.394Z,53.40
2022-11-04T07:47:39.347Z,53.40
2022-11-04T07:50:14.291Z,53.20
2022-11-04T07:52:50.883Z,53.00
2022-11-04T07:55:25.953Z,52.80
2022-11-04T07:58:02.975Z,52.90
2022-11-04T08:00:37.908Z,52.40
2022-11-04T08:03:13.562Z,52.20
2022-11-04T08:05:56.511Z,51.90
2022-11-04T08:08:33.255Z,51.70
2022-11-04T08:11:17.805Z,51.30
2022-11-04T08:13:53.112Z,51.00
2022-11-04T08:16:33.924Z,50.70
2022-11-04T08:19:11.317Z,50.00
2022-11-04T08:21:47.356Z,49.50
2022-11-04T08:24:23.395Z,49.70
2022-11-04T08:26:58.415Z,49.10
2022-11-04T08:29:34.735Z,48.80
2022-11-04T08:32:09.807Z,47.90
2022-11-04T08:34:45.388Z,47.60
2022-11-04T08:37:20.569Z,47.40
2022-11-04T08:39:55.564Z,47.00
2022-11-04T08:42:30.615Z,46.80
2022-11-04T08:45:06.360Z,46.90
2022-11-04T08:47:41.239Z,46.60
2022-11-04T08:50:16.274Z,46.20
2022-11-04T08:52:51.171Z,46.40
2022-11-04T08:55:29.429Z,46.50
2022-11-04T08:58:04.491Z,46.60
2022-11-04T09:00:39.728Z,46.50
2022-11-04T09:03:14.791Z,46.20
2022-11-04T09:05:49.765Z,46.00
2022-11-04T09:08:24.721Z,45.80
2022-11-04T09:10:59.694Z,45.30
2022-11-04T09:13:39.419Z,44.10
2022-11-04T09:16:15.682Z,43.90
2022-11-04T09:18:51.037Z,43.10
2022-11-04T09:21:27.532Z,42.40
2022-11-04T09:24:02.709Z,42.50
2022-11-04T09:26:37.711Z,42.40
2022-11-04T09:29:12.626Z,41.90
2022-11-04T09:31:49.741Z,41.60
2022-11-04T09:34:24.693Z,41.20
2022-11-04T09:36:59.941Z,40.00
2022-11-04T09:39:34.889Z,39.60
2022-11-04T09:42:32.525Z,39.60
2022-11-04T09:45:22.536Z,39.20
2022-11-04T09:48:06.383Z,38.90
2022-11-04T09:50:53.582Z,39.00
2022-11-04T09:53:58.941Z,39.40
2022-11-04T09:56:38.833Z,39.40
2022-11-04T09:59:21.117Z,39.50
2022-11-04T10:02:11.835Z,39.60
2022-11-04T10:05:11.968Z,39.50
2022-11-04T10:08:51.418Z,39.70
2022-11-04T10:11:50.737Z,39.40
2022-11-04T10:14:35.714Z,38.20
2022-11-04T10:17:50.748Z,38.20
2022-11-04T10:21:07.959Z,38.00
2022-11-04T10:24:08.434Z,38.10
2022-11-04T10:26:59.051Z,38.30
2022-11-04T10:29:45.100Z,38.00
2022-11-04T10:32:47.192Z,37.70
2022-11-04T10:35:46.706Z,37.50
2022-11-04T10:38:33.631Z,37.20
2022-11-04T10:41:34.510Z,37.10
2022-11-04T10:44:23.213Z,36.60
2022-11-04T10:47:40.200Z,37.20
2022-11-04T10:50:37.502Z,36.70
2022-11-04T10:53:23.038Z,36.30
2022-11-04T10:56:16.849Z,36.00
2022-11-04T10:58:53.706Z,36.10
2022-11-04T11:01:35.232Z,35.70
2022-11-04T11:04:44.526Z,35.30
2022-11-04T11:07:22.893Z,34.20
2022-11-04T11:10:01.390Z,33.50
2022-11-04T11:12:51.410Z,33.80
2022-11-04T11:15:39.304Z,33.80
2022-11-04T11:18:17.705Z,33.90
2022-11-04T11:21:04.948Z,33.60
2022-11-04T11:23:43.484Z,33.10
2022-11-04T11:26:32.291Z,33.20
2022-11-04T11:29:11.566Z,33.30
2022-11-04T11:31:46.606Z,33.40
2022-11-04T11:34:33.984Z,33.50
2022-11-04T11:37:22.917Z,33.60
2022-11-04T11:39:58.367Z,33.70
2022-11-04T11:42:34.609Z,33.60
2022-11-04T11:45:16.572Z,33.40
2022-11-04T11:47:55.007Z,33.60
2022-11-04T11:50:34.502Z,33.70
2022-11-04T11:53:23.774Z,33.10
2022-11-04T11:56:36.246Z,33.40
2022-11-04T12:03:10.037Z,34.40
2022-11-04T12:06:18.313Z,34.60
2022-11-04T12:09:25.648Z,34.90
2022-11-04T12:12:14.196Z,35.10
2022-11-04T12:15:20.470Z,35.20
2022-11-04T12:18:18.612Z,35.20
2022-11-04T12:21:13.952Z,35.70
2022-11-04T12:24:16.603Z,35.50
2022-11-04T12:27:20.414Z,35.40
2022-11-04T12:30:17.064Z,35.60
2022-11-04T12:33:21.298Z,34.70
2022-11-04T12:36:55.830Z,34.50
2022-11-04T12:39:33.802Z,34.70
2022-11-04T12:42:32.829Z,34.70
2022-11-04T12:45:28.024Z,34.90
2022-11-04T12:48:39.208Z,34.30
2022-11-04T12:51:35.084Z,34.10
2022-11-04T12:55:33.819Z,33.80
2022-11-04T12:58:45.328Z,33.60
2022-11-04T13:01:42.810Z,33.60
2022-11-04T13:04:23.291Z,34.20
2022-11-04T13:07:32.823Z,34.50
2022-11-04T13:10:51.138Z,34.20
2022-11-04T13:13:36.439Z,33.80
2022-11-04T13:16:12.399Z,32.60
2022-11-04T13:18:49.441Z,33.30
2022-11-04T13:21:28.700Z,33.70
2022-11-04T13:24:25.971Z,34.00
2022-11-04T13:27:06.179Z,34.30
2022-11-04T13:29:41.548Z,34.50
2022-11-04T13:32:35.271Z,34.60
2022-11-04T13:35:22.060Z,34.70
2022-11-04T13:38:16.993Z,34.70
2022-11-04T13:41:21.509Z,34.40
2022-11-04T13:44:32.016Z,34.50
2022-11-04T13:47:21.926Z,34.70
2022-11-04T13:49:57.472Z,34.30
2022-11-04T13:52:34.317Z,33.30
2022-11-04T13:55:21.495Z,33.30
2022-11-04T13:58:04.877Z,33.10
2022-11-04T14:00:40.048Z,33.50
2022-11-04T14:03:27.207Z,34.10
2022-11-04T14:06:05.788Z,35.60
2022-11-04T14:09:32.684Z,36.20
2022-11-04T14:12:10.646Z,37.20
2022-11-04T14:14:51.792Z,37.50
2022-11-04T14:17:35.533Z,36.70
2022-11-04T14:20:33.024Z,36.90
2022-11-04T14:23:23.572Z,36.80
2022-11-04T14:26:08.175Z,36.90
2022-11-04T14:29:00.394Z,37.20
2022-11-04T14:31:40.878Z,36.90
2022-11-04T14:34:36.476Z,36.70
2022-11-04T14:37:25.275Z,36.90
2022-11-04T14:40:05.635Z,37.30
2022-11-04T14:42:52.606Z,37.40
2022-11-04T14:45:38.646Z,37.70
2022-11-04T14:48:19.377Z,38.10
2022-11-04T14:50:55.901Z,38.20
2022-11-04T14:53:37.569Z,38.20
2022-11-04T14:56:23.891Z,38.40
2022-11-04T14:59:06.274Z,38.30
2022-11-04T15:01:42.805Z,37.30
2022-11-04T15:04:30.815Z,37.70
2022-11-04T15:07:05.788Z,38.20
2022-11-04T15:09:48.275Z,37.80
2022-11-04T15:12:41.727Z,37.90
2022-11-04T15:15:34.584Z,37.90
2022-11-04T15:18:15.330Z,38.30
2022-11-04T15:20:57.294Z,38.90
2022-11-04T15:23:46.768Z,39.10
2022-11-04T15:26:30.224Z,39.40
2022-11-04T15:29:11.751Z,39.10
2022-11-04T15:32:04.707Z,39.00
2022-11-04T15:34:40.681Z,38.90
2022-11-04T15:37:17.257Z,39.30
2022-11-04T15:39:55.442Z,40.10
2022-11-04T15:42:39.983Z,40.70
2022-11-04T15:45:33.611Z,41.10
2022-11-04T15:48:37.654Z,41.40
2022-11-04T15:51:21.380Z,41.40
2022-11-04T15:54:20.291Z,41.60
2022-11-04T15:56:58.451Z,41.60
2022-11-04T15:59:35.668Z,42.20
2022-11-04T16:02:26.169Z,42.30
2022-11-04T16:05:16.089Z,43.00
2022-11-04T16:07:53.691Z,43.40
2022-11-04T16:10:39.514Z,43.40
2022-11-04T16:13:14.457Z,43.60
2022-11-04T16:16:09.472Z,43.80
2022-11-04T16:18:54.000Z,43.60
2022-11-04T16:21:36.108Z,43.60
2022-11-04T16:24:28.044Z,44.60
2022-11-04T16:27:03.446Z,45.30
2022-11-04T16:29:42.671Z,45.80
2022-11-04T16:32:40.523Z,46.50
2022-11-04T16:35:22.057Z,46.90
2022-11-04T16:38:00.660Z,47.30
2022-11-04T16:40:35.708Z,48.00
2022-11-04T16:43:11.343Z,48.40
2022-11-04T16:45:53.848Z,49.30
2022-11-04T16:48:29.314Z,49.70
2022-11-04T16:51:04.636Z,50.30
2022-11-04T16:53:39.455Z,50.30
2022-11-04T16:56:15.882Z,50.60
2022-11-04T16:58:51.944Z,50.70
2022-11-04T17:01:27.247Z,51.20
2022-11-04T17:04:04.196Z,51.60
2022-11-04T17:06:39.763Z,51.90
2022-11-04T17:09:22.479Z,52.10
2022-11-04T17:11:57.436Z,52.70
2022-11-04T17:14:32.568Z,53.90
2022-11-04T17:17:08.611Z,55.00
2022-11-04T17:19:43.521Z,55.50
2022-11-04T17:22:18.503Z,56.10
2022-11-04T17:24:53.558Z,56.40
2022-11-04T17:27:28.457Z,56.60
2022-11-04T17:30:03.775Z,56.80
2022-11-04T17:32:39.011Z,57.40
2022-11-04T17:35:16.557Z,57.90
2022-11-04T17:37:53.170Z,58.00
2022-11-04T17:40:28.150Z,57.90
2022-11-04T17:43:21.687Z,58.00
2022-11-04T17:46:16.566Z,58.10
2022-11-04T17:48:51.512Z,58.10
2022-11-04T17:51:27.110Z,58.40
2022-11-04T17:54:02.148Z,58.40
2022-11-04T17:56:38.854Z,57.90
2022-11-04T17:59:15.824Z,56.00
2022-11-04T18:01:51.305Z,55.90
2022-11-04T18:04:26.225Z,55.90
2022-11-04T18:07:03.053Z,56.30
2022-11-04T18:09:39.337Z,56.60
2022-11-04T18:12:32.767Z,56.30
2022-11-04T18:15:11.812Z,56.40
2022-11-04T18:17:47.014Z,56.10
2022-11-04T18:20:21.982Z,56.10
2022-11-04T18:23:00.035Z,56.20
2022-11-04T18:25:35.036Z,55.90
2022-11-04T18:28:10.647Z,55.90
2022-11-04T18:30:45.608Z,56.40
2022-11-04T18:33:20.579Z,56.00
2022-11-04T18:35:55.512Z,56.20
2022-11-04T18:38:30.483Z,56.20
2022-11-04T18:41:05.524Z,56.50
2022-11-04T18:43:40.660Z,57.00
2022-11-04T18:46:17.140Z,57.80
2022-11-04T18:48:53.050Z,58.00
2022-11-04T18:51:28.061Z,58.70
2022-11-04T18:54:07.414Z,59.40
2022-11-04T18:56:42.855Z,59.70
2022-11-04T18:59:17.837Z,60.10
2022-11-04T19:01:53.323Z,60.40
2022-11-04T19:04:28.481Z,60.30
2022-11-04T19:07:04.443Z,61.00
2022-11-04T19:09:46.719Z,61.30
2022-11-04T19:12:40.672Z,61.50
2022-11-04T19:15:15.536Z,61.30
2022-11-04T19:17:50.451Z,61.60
2022-11-04T19:20:25.505Z,61.80
2022-11-04T19:23:00.484Z,62.00
2022-11-04T19:25:40.271Z,62.20
2022-11-04T19:31:13.812Z,62.10
2022-11-04T19:33:49.971Z,62.20
2022-11-04T19:36:26.122Z,62.40
2022-11-04T19:39:02.067Z,62.50
2022-11-04T19:41:56.375Z,62.50
2022-11-04T19:44:32.192Z,62.80
2022-11-04T19:47:09.184Z,62.90
2022-11-04T19:49:44.097Z,63.20
2022-11-04T19:52:19.401Z,63.40
2022-11-04T19:54:54.485Z,63.70
2022-11-04T19:57:30.162Z,64.40
2022-11-04T20:00:06.186Z,64.70
2022-11-04T20:02:46.477Z,65.10
2022-11-04T20:05:21.787Z,65.20
2022-11-04T20:08:00.445Z,65.60
2022-11-04T20:10:41.840Z,65.60
2022-11-04T20:13:38.780Z,66.50
2022-11-04T20:16:30.551Z,66.80
2022-11-04T20:19:05.474Z,66.70
2022-11-04T20:21:40.591Z,66.80
2022-11-04T20:24:15.650Z,67.10
2022-11-04T20:26:50.911Z,67.20
2022-11-04T20:29:25.951Z,67.20
2022-11-04T20:32:00.869Z,67.10
2022-11-04T20:34:35.999Z,67.00
2022-11-04T20:37:12.503Z,67.10
2022-11-04T20:39:47.798Z,67.10
2022-11-04T20:42:22.742Z,67.50
2022-11-04T20:44:57.634Z,67.40
2022-11-04T20:47:32.649Z,67.30
2022-11-04T20:50:09.060Z,67.10
2022-11-04T20:52:43.939Z,66.50
2022-11-04T20:55:18.822Z,66.30
2022-11-04T20:57:53.853Z,66.10
2022-11-04T21:00:28.841Z,65.90
2022-11-04T21:03:04.766Z,65.80
2022-11-04T21:05:39.938Z,65.70
2022-11-04T21:08:14.783Z,65.80
2022-11-04T21:10:51.728Z,65.90
2022-11-04T21:13:26.690Z,66.00
2022-11-04T21:16:02.491Z,66.00
2022-11-04T21:18:37.662Z,66.10
2022-11-04T21:21:15.836Z,66.10
2022-11-04T21:23:55.938Z,66.10
2022-11-04T21:26:34.395Z,66.20
2022-11-04T21:29:13.665Z,66.30
2022-11-04T21:31:48.885Z,66.50
2022-11-04T21:34:24.785Z,66.50
2022-11-04T21:36:59.653Z,66.40
2022-11-04T21:39:34.486Z,66.40
2022-11-04T21:42:09.326Z,66.50
2022-11-04T21:44:44.339Z,66.40
2022-11-04T21:47:19.184Z,66.20
2022-11-04T21:49:54.035Z,66.30
2022-11-04T21:52:28.876Z,66.20
2022-11-04T21:55:04.358Z,66.10
2022-11-04T21:57:39.747Z,66.10
2022-11-04T22:00:15.205Z,65.90
2022-11-04T22:02:53.039Z,65.70
2022-11-04T22:05:28.008Z,65.80
2022-11-04T22:08:18.111Z,66.00
2022-11-04T22:10:53.662Z,66.00
2022-11-04T22:13:28.509Z,66.20
2022-11-04T22:16:26.038Z,66.30
2022-11-04T22:19:04.083Z,65.70
2022-11-04T22:21:41.525Z,64.70
2022-11-04T22:24:18.193Z,64.00
2022-11-04T22:26:53.115Z,63.10
2022-11-04T22:29:27.946Z,63.30
2022-11-04T22:32:02.836Z,63.50
2022-11-04T22:34:37.651Z,63.60
2022-11-04T22:37:12.482Z,63.90
2022-11-04T22:39:47.340Z,64.20
2022-11-04T22:42:22.241Z,64.50
2022-11-04T22:44:57.192Z,64.70
2022-11-04T22:47:32.118Z,64.70
2022-11-04T22:50:07.573Z,64.80
2022-11-04T22:52:42.445Z,64.90
2022-11-04T22:55:17.921Z,64.90
2022-11-04T22:57:54.166Z,64.80
2022-11-04T23:00:29.461Z,64.70
2022-11-04T23:03:04.705Z,63.50
2022-11-04T23:05:39.714Z,63.30
2022-11-04T23:08:14.571Z,62.90
2022-11-04T23:11:08.195Z,63.10
2022-11-04T23:14:18.734Z,63.10
2022-11-04T23:17:13.622Z,63.60
2022-11-04T23:19:50.407Z,62.20
2022-11-04T23:22:43.627Z,61.70
2022-11-04T23:25:18.638Z,61.70
2022-11-04T23:28:14.003Z,61.70
2022-11-04T23:30:52.044Z,61.50
2022-11-04T23:33:45.308Z,60.90
2022-11-04T23:36:38.635Z,61.10
2022-11-04T23:39:14.575Z,61.40
2022-11-04T23:42:07.922Z,61.60
2022-11-04T23:45:21.620Z,62.00
2022-11-04T23:48:15.067Z,61.70
2022-11-04T23:51:16.468Z,61.70
2022-11-04T23:54:09.945Z,61.90
2022-11-04T23:57:03.229Z,62.00
2022-11-04T23:59:56.915Z,61.50
